SMZO

Zorg en Hoop Airport

Paramaribo, Suriname
TAF SMZO 180400Z 1806/1906 10005KT CAVOK TX35/1818Z TN24/1810Z PROB30 TEMPO 1809/1810 00000KT 4000 BR SCT004 FM181200 11010KT 9999 SCT020 PROB30 TEMPO 1818/1822 5000 TSRA FEW015CB SCT025
Issued Valid From Valid To
Oct-18 @ 04:00 UTC
(8 hours ago)
Oct-18 @ 06:00 UTC
(6 hours ago)
Oct-19 @ 06:00 UTC
(in 18 hours)
Oct-18 @ 06:00 to Oct-18 @ 12:00
TAF SMZO 180400Z 1806/1906 10005KT CAVOK TX35/1818Z TN24/1810Z
Wind Visibility Clouds
100° at 5 knots 10,000+ meters
  • No significant clouds
Expired Click to View Oct-18 @ 09:00 to Oct-18 @ 10:00
PROB30 TEMPO 1809/1810 00000KT 4000 BR SCT004
Visibility Clouds Conditions
4,007 meters
  • Scattered at 400' AGL
  • Mist
From Oct-18 @ 12:00 to Oct-19 @ 06:00
FM181200 11010KT 9999 SCT020
Wind Visibility Clouds
110° at 10 knots 10,000+ meters
  • Scattered at 2,000' AGL
Temporary  (Probability 30%) Oct-18 @ 18:00 to Oct-18 @ 22:00
PROB30 TEMPO 1818/1822 5000 TSRA FEW015CB SCT025
Visibility Clouds Conditions
5,005 meters
  • Few at 1,500' AGL
  • Scattered at 2,500' AGL
  • Thunderstorm
  • Rain
TAF SMZO 180400Z 1806/1906 10005KT CAVOK TX35/1818Z TN24/1810Z PROB30 TEMPO 1809/1810 00000KT 4000 BR SCT004 FM181200 11010KT 9999 SCT020 PROB30 TEMPO 1818/1822 5000 TSRA FEW015CB SCT025
Issued Oct-18 @ 04:00 UTC
(8 hours ago)
Valid From Oct-18 @ 06:00 UTC
(6 hours ago)
Valid To Oct-19 @ 06:00 UTC
(in 18 hours)
Oct-18 @ 06:00 - Oct-18 @ 12:00
Wind Visibility
100° at 5 knots 10,000+ meters
Clouds
  • No significant clouds
Oct-18 @ 09:00 - Oct-18 @ 10:00
Clouds
  • Scattered at 400' AGL
Conditions
  • Mist
From Oct-18 @ 12:00 - Oct-19 @ 06:00
Wind Visibility
110° at 10 knots 10,000+ meters
Clouds
  • Scattered at 2,000' AGL
Probability 30% Temporary Oct-18 @ 18:00 - Oct-18 @ 22:00
Clouds
  • Few at 1,500' AGL
  • Scattered at 2,500' AGL
Conditions
  • Thunderstorm
  • Rain